createdAt,value
2018-09-06T00:01:40.006Z,6.93
2018-09-06T00:04:08.379Z,7.00
2018-09-06T00:06:37.263Z,7.20
2018-09-06T00:09:07.634Z,7.70
2018-09-06T00:11:36.142Z,6.67
2018-09-06T00:14:04.779Z,6.30
2018-09-06T00:16:34.152Z,6.77
2018-09-06T00:19:02.738Z,7.27
2018-09-06T00:21:31.134Z,6.20
2018-09-06T00:23:59.609Z,6.83
2018-09-06T00:26:28.094Z,8.43
2018-09-06T00:28:56.591Z,6.37
2018-09-06T00:31:24.931Z,8.33
2018-09-06T00:33:53.664Z,6.43
2018-09-06T00:36:22.043Z,5.87
2018-09-06T00:38:50.445Z,7.17
2018-09-06T00:41:18.950Z,6.20
2018-09-06T00:43:47.554Z,6.70
2018-09-06T00:46:15.956Z,7.33
2018-09-06T00:48:44.471Z,6.67
2018-09-06T00:51:13.120Z,5.60
2018-09-06T00:53:41.598Z,7.10
2018-09-06T00:56:10.063Z,6.00
2018-09-06T00:58:38.525Z,5.97
2018-09-06T01:01:07.011Z,7.30
2018-09-06T01:03:35.477Z,9.23
2018-09-06T01:06:03.897Z,6.50
2018-09-06T01:08:32.328Z,7.43
2018-09-06T01:11:00.792Z,6.90
2018-09-06T01:13:29.227Z,7.37
2018-09-06T01:15:57.663Z,6.10
2018-09-06T01:18:26.060Z,7.13
2018-09-06T01:20:54.462Z,8.27
2018-09-06T01:23:22.884Z,7.53
2018-09-06T01:25:51.305Z,8.03
2018-09-06T01:28:20.900Z,6.73
2018-09-06T01:30:49.840Z,7.23
2018-09-06T01:33:18.245Z,8.23
2018-09-06T01:35:52.044Z,9.00
2018-09-06T01:38:20.529Z,9.67
2018-09-06T01:40:48.914Z,6.03
2018-09-06T01:43:17.366Z,6.10
2018-09-06T01:45:45.838Z,7.83
2018-09-06T01:48:14.176Z,6.60
2018-09-06T01:50:43.162Z,7.27
2018-09-06T01:53:11.550Z,8.40
2018-09-06T01:55:39.941Z,6.37
2018-09-06T01:58:08.329Z,6.57
2018-09-06T02:00:36.754Z,8.27
2018-09-06T02:03:05.268Z,7.03
2018-09-06T02:05:37.168Z,8.73
2018-09-06T02:08:07.188Z,6.33
2018-09-06T02:10:35.982Z,7.03
2018-09-06T02:13:04.472Z,7.40
2018-09-06T02:15:33.032Z,7.73
2018-09-06T02:18:01.542Z,6.70
2018-09-06T02:20:30.012Z,7.87
2018-09-06T02:22:58.382Z,7.87
2018-09-06T02:25:26.800Z,8.13
2018-09-06T02:27:55.272Z,7.80
2018-09-06T02:30:23.680Z,7.07
2018-09-06T02:32:52.175Z,7.67
2018-09-06T02:35:20.612Z,9.43
2018-09-06T02:37:49.018Z,7.93
2018-09-06T02:40:22.792Z,6.50
2018-09-06T02:42:51.251Z,7.73
2018-09-06T02:45:19.866Z,9.20
2018-09-06T02:47:54.573Z,8.27
2018-09-06T02:50:28.993Z,8.50
2018-09-06T02:52:58.043Z,6.97
2018-09-06T02:55:27.960Z,8.50
2018-09-06T02:57:56.409Z,7.43
2018-09-06T03:00:29.112Z,7.93
2018-09-06T03:02:57.629Z,9.60
2018-09-06T03:05:26.749Z,10.37
2018-09-06T03:07:56.811Z,7.97
2018-09-06T03:10:27.002Z,9.17
2018-09-06T03:12:55.388Z,10.33
2018-09-06T03:15:23.853Z,9.33
2018-09-06T03:17:52.368Z,9.33
2018-09-06T03:20:20.768Z,8.00
2018-09-06T03:22:49.214Z,8.83
2018-09-06T03:25:17.603Z,7.43
2018-09-06T03:27:45.968Z,9.53
2018-09-06T03:30:14.423Z,7.67
2018-09-06T03:32:42.840Z,8.93
2018-09-06T03:35:11.237Z,9.37
2018-09-06T03:37:39.708Z,8.50
2018-09-06T03:40:08.121Z,7.63
2018-09-06T03:42:36.571Z,6.97
2018-09-06T03:45:05.068Z,7.60
2018-09-06T03:47:33.524Z,7.83
2018-09-06T03:50:01.987Z,6.93
2018-09-06T03:52:30.381Z,8.30
2018-09-06T03:54:58.916Z,8.47
2018-09-06T03:57:27.383Z,7.00
2018-09-06T03:59:55.804Z,6.97
2018-09-06T04:02:24.189Z,6.57
2018-09-06T04:04:52.671Z,7.03
2018-09-06T04:07:21.133Z,7.60
2018-09-06T04:09:49.493Z,6.63
2018-09-06T04:12:17.968Z,6.43
2018-09-06T04:14:46.412Z,6.00
2018-09-06T04:17:14.829Z,9.77
2018-09-06T04:19:43.346Z,7.43
2018-09-06T04:22:11.784Z,7.50
2018-09-06T04:24:40.204Z,6.60
2018-09-06T04:27:08.649Z,6.77
2018-09-06T04:29:37.259Z,6.07
2018-09-06T04:32:05.801Z,5.97
2018-09-06T04:34:34.244Z,7.30
2018-09-06T04:37:02.600Z,8.37
2018-09-06T04:39:31.014Z,7.27
2018-09-06T04:41:59.558Z,8.67
2018-09-06T04:44:30.521Z,6.70
2018-09-06T04:46:58.905Z,7.43
2018-09-06T04:49:27.410Z,7.83
2018-09-06T04:51:56.446Z,7.83
2018-09-06T04:54:24.930Z,8.30
2018-09-06T04:56:53.370Z,7.47
2018-09-06T04:59:21.858Z,7.87
2018-09-06T05:01:50.314Z,8.10
2018-09-06T05:04:19.496Z,9.30
2018-09-06T05:06:47.945Z,7.23
2018-09-06T05:09:16.375Z,8.63
2018-09-06T05:11:44.849Z,9.87
2018-09-06T05:14:13.397Z,8.73
2018-09-06T05:16:41.829Z,7.50
2018-09-06T05:19:10.229Z,9.07
2018-09-06T05:21:38.818Z,8.03
2018-09-06T05:24:07.271Z,7.83
2018-09-06T05:26:35.808Z,9.50
2018-09-06T05:29:04.277Z,7.93
2018-09-06T05:31:32.918Z,6.90
2018-09-06T05:34:01.310Z,7.80
2018-09-06T05:36:29.775Z,7.13
2018-09-06T05:38:58.168Z,9.40
2018-09-06T05:41:26.819Z,8.67
2018-09-06T05:43:55.264Z,8.57
2018-09-06T05:46:23.776Z,12.50
2018-09-06T05:48:52.400Z,7.93
2018-09-06T05:51:21.325Z,8.93
2018-09-06T05:53:49.760Z,8.63
2018-09-06T05:56:18.300Z,7.67
2018-09-06T05:58:46.710Z,10.70
2018-09-06T06:01:15.172Z,7.30
2018-09-06T06:03:43.572Z,8.50
2018-09-06T06:06:11.994Z,9.60
2018-09-06T06:08:44.204Z,11.43
2018-09-06T06:11:12.773Z,11.90
2018-09-06T06:13:41.332Z,8.90
2018-09-06T06:16:11.178Z,8.03
2018-09-06T06:18:39.664Z,9.17
2018-09-06T06:21:08.090Z,10.37
2018-09-06T06:23:36.629Z,8.60
2018-09-06T06:26:05.320Z,9.37
2018-09-06T06:28:33.831Z,9.83
2018-09-06T06:31:02.240Z,8.80
2018-09-06T06:33:31.032Z,8.40
2018-09-06T06:35:59.424Z,11.50
2018-09-06T06:38:27.828Z,9.30
2018-09-06T06:40:56.503Z,9.07
2018-09-06T06:43:24.944Z,11.40
2018-09-06T06:45:53.469Z,8.80
2018-09-06T06:48:21.937Z,10.83
2018-09-06T06:50:50.422Z,9.63
2018-09-06T06:53:18.861Z,13.77
2018-09-06T06:55:47.347Z,8.87
2018-09-06T06:58:15.752Z,7.77
2018-09-06T07:00:44.337Z,11.83
2018-09-06T07:03:13.951Z,8.17
2018-09-06T07:05:42.915Z,12.27
2018-09-06T07:08:11.880Z,8.60
2018-09-06T07:10:40.395Z,10.17
2018-09-06T07:13:09.453Z,10.57
2018-09-06T07:15:37.905Z,10.33
2018-09-06T07:18:06.825Z,10.57
2018-09-06T07:20:35.245Z,9.60
2018-09-06T07:23:03.636Z,11.43
2018-09-06T07:25:32.072Z,15.37
2018-09-06T07:28:00.877Z,14.07
2018-09-06T07:30:30.465Z,9.80
2018-09-06T07:32:58.977Z,10.30
2018-09-06T07:35:27.490Z,9.83
2018-09-06T07:37:55.897Z,10.50
2018-09-06T07:40:24.341Z,10.83
2018-09-06T07:42:52.913Z,9.47
2018-09-06T07:45:21.428Z,11.30
2018-09-06T07:47:49.874Z,8.37
2018-09-06T07:50:18.546Z,12.13
2018-09-06T07:52:47.121Z,8.90
2018-09-06T07:55:16.464Z,7.97
2018-09-06T07:57:45.006Z,11.68
2018-09-06T08:00:13.582Z,11.37
2018-09-06T08:02:42.097Z,11.60
2018-09-06T08:05:15.730Z,11.77
2018-09-06T08:07:44.495Z,11.07
2018-09-06T08:10:13.044Z,11.37
2018-09-06T08:12:41.512Z,10.40
2018-09-06T08:15:10.038Z,13.37
2018-09-06T08:17:38.484Z,9.90
2018-09-06T08:20:07.028Z,8.13
2018-09-06T08:22:39.445Z,10.40
2018-09-06T08:25:08.258Z,9.27
2018-09-06T08:27:36.893Z,9.37
2018-09-06T08:30:05.333Z,9.80
2018-09-06T08:32:33.888Z,10.50
2018-09-06T08:35:02.617Z,11.90
2018-09-06T08:37:31.193Z,10.80
2018-09-06T08:40:00.436Z,11.40
2018-09-06T08:42:32.699Z,15.30
2018-09-06T08:45:04.490Z,10.10
2018-09-06T08:47:34.124Z,11.43
2018-09-06T08:50:12.289Z,11.17
2018-09-06T08:52:40.877Z,13.73
2018-09-06T08:55:10.432Z,9.03
2018-09-06T08:57:48.531Z,12.37
2018-09-06T09:00:17.115Z,9.43
2018-09-06T09:02:49.779Z,10.40
2018-09-06T09:05:34.053Z,14.07
2018-09-06T09:08:12.777Z,9.87
2018-09-06T09:10:41.218Z,12.37
2018-09-06T09:13:19.566Z,10.57
2018-09-06T09:15:48.254Z,12.53
2018-09-06T09:18:16.719Z,7.23
2018-09-06T09:20:45.249Z,10.73
2018-09-06T09:23:13.767Z,12.23
2018-09-06T09:25:42.177Z,8.87
2018-09-06T09:28:10.731Z,10.73
2018-09-06T09:30:39.166Z,9.90
2018-09-06T09:33:07.653Z,8.10
2018-09-06T09:35:36.248Z,9.17
2018-09-06T09:38:05.870Z,11.00
2018-09-06T09:40:34.494Z,8.10
2018-09-06T09:43:02.973Z,10.97
2018-09-06T09:45:31.466Z,9.43
2018-09-06T09:48:00.212Z,13.90
2018-09-06T09:53:00.623Z,9.27
2018-09-06T09:55:29.133Z,12.47
2018-09-06T09:57:57.541Z,9.70
2018-09-06T10:00:31.437Z,12.47
2018-09-06T10:03:05.044Z,11.07
2018-09-06T10:05:38.838Z,13.90
2018-09-06T10:08:12.580Z,10.77
2018-09-06T10:10:41.353Z,10.23
2018-09-06T10:13:10.112Z,11.37
2018-09-06T10:15:39.050Z,9.93
2018-09-06T10:18:08.167Z,9.33
2018-09-06T10:20:40.292Z,12.93
2018-09-06T10:23:08.709Z,11.27
2018-09-06T10:25:37.120Z,8.40
2018-09-06T10:28:05.505Z,10.53
2018-09-06T10:30:33.949Z,11.77
2018-09-06T10:33:07.277Z,8.63
2018-09-06T10:35:35.760Z,8.47
2018-09-06T10:38:04.256Z,8.80
2018-09-06T10:40:36.610Z,12.53
2018-09-06T10:43:05.189Z,8.93
2018-09-06T10:45:33.746Z,10.70
2018-09-06T10:48:02.267Z,9.93
2018-09-06T10:50:30.822Z,10.50
2018-09-06T10:52:59.314Z,12.83
2018-09-06T10:55:33.718Z,13.37
2018-09-06T10:58:02.206Z,8.73
2018-09-06T11:00:30.660Z,9.43
2018-09-06T11:02:59.592Z,9.37
2018-09-06T11:05:29.057Z,9.10
2018-09-06T11:07:57.567Z,9.37
2018-09-06T11:10:35.608Z,11.10
2018-09-06T11:13:04.041Z,12.17
2018-09-06T11:15:32.618Z,7.57
2018-09-06T11:18:02.188Z,10.37
2018-09-06T11:20:30.572Z,9.03
2018-09-06T11:22:59.104Z,12.10
2018-09-06T11:25:28.184Z,14.60
2018-09-06T11:27:56.883Z,11.20
2018-09-06T11:30:31.409Z,10.35
2018-09-06T11:33:00.522Z,9.57
2018-09-06T11:35:29.355Z,12.47
2018-09-06T11:37:57.842Z,8.87
2018-09-06T11:40:26.407Z,7.00
2018-09-06T11:42:54.790Z,9.67
2018-09-06T11:45:23.263Z,9.07
2018-09-06T11:47:51.717Z,9.07
2018-09-06T11:50:20.421Z,6.77
2018-09-06T11:52:48.909Z,6.37
2018-09-06T11:55:17.381Z,6.77
2018-09-06T11:57:45.984Z,9.20
2018-09-06T12:00:17.644Z,8.43
2018-09-06T12:02:46.593Z,10.53
2018-09-06T12:05:15.081Z,7.50
2018-09-06T12:07:43.625Z,10.40
2018-09-06T12:10:12.336Z,8.90
2018-09-06T12:12:40.985Z,10.13
2018-09-06T12:15:09.474Z,11.10
2018-09-06T12:17:47.848Z,10.30
2018-09-06T12:20:16.240Z,10.60
2018-09-06T12:22:44.749Z,8.67
2018-09-06T12:25:16.990Z,9.13
2018-09-06T12:27:45.575Z,14.30
2018-09-06T12:30:14.070Z,8.87
2018-09-06T12:32:42.551Z,12.47
2018-09-06T12:35:14.250Z,8.07
2018-09-06T12:37:42.829Z,11.90
2018-09-06T12:40:11.438Z,10.73
2018-09-06T12:42:39.905Z,9.20
2018-09-06T12:45:08.330Z,11.07
2018-09-06T12:47:36.789Z,12.13
2018-09-06T12:50:05.378Z,9.93
2018-09-06T12:52:33.885Z,13.83
2018-09-06T12:55:02.496Z,12.87
2018-09-06T12:57:31.273Z,11.60
2018-09-06T12:59:59.865Z,10.37
2018-09-06T13:02:28.370Z,10.00
2018-09-06T13:04:57.948Z,8.17
2018-09-06T13:07:26.389Z,9.87
2018-09-06T13:09:54.897Z,12.37
2018-09-06T13:12:23.389Z,12.43
2018-09-06T13:14:51.793Z,10.07
2018-09-06T13:17:20.309Z,11.57
2018-09-06T13:19:48.797Z,12.33
2018-09-06T13:22:17.237Z,12.87
2018-09-06T13:24:45.742Z,12.03
2018-09-06T13:27:14.198Z,14.03
2018-09-06T13:29:42.814Z,14.43
2018-09-06T13:32:11.278Z,12.93
2018-09-06T13:34:39.765Z,14.13
2018-09-06T13:37:08.301Z,13.27
2018-09-06T13:39:36.782Z,16.80
2018-09-06T13:42:11.090Z,14.30
2018-09-06T13:44:39.545Z,13.57
2018-09-06T13:47:08.157Z,16.70
2018-09-06T13:49:43.756Z,15.67
2018-09-06T13:52:12.279Z,16.00
2018-09-06T13:54:40.668Z,15.53
2018-09-06T13:57:09.137Z,20.47
2018-09-06T13:59:37.732Z,18.57
2018-09-06T14:02:06.155Z,15.40
2018-09-06T14:04:34.602Z,16.20
2018-09-06T14:07:03.059Z,17.07
2018-09-06T14:09:32.172Z,19.17
2018-09-06T14:12:01.953Z,17.27
2018-09-06T14:14:30.409Z,16.77
2018-09-06T14:16:59.025Z,14.40
2018-09-06T14:19:27.497Z,15.17
2018-09-06T14:21:55.977Z,18.20
2018-09-06T14:24:28.279Z,17.23
2018-09-06T14:26:57.116Z,19.27
2018-09-06T14:29:25.618Z,19.10
2018-09-06T14:31:59.967Z,18.50
2018-09-06T14:34:35.003Z,21.17
2018-09-06T14:37:03.757Z,21.23
2018-09-06T14:39:32.406Z,16.20
2018-09-06T14:42:00.933Z,19.00
2018-09-06T14:44:36.220Z,18.37
2018-09-06T14:47:04.785Z,22.27
2018-09-06T14:49:33.971Z,17.17
2018-09-06T14:52:02.540Z,18.90
2018-09-06T14:54:31.050Z,19.33
2018-09-06T14:56:59.595Z,18.33
2018-09-06T14:59:28.062Z,21.67
2018-09-06T15:01:56.676Z,22.03
2018-09-06T15:04:25.493Z,18.83
2018-09-06T15:06:53.920Z,25.80
2018-09-06T15:09:22.406Z,22.53
2018-09-06T15:11:50.996Z,22.97
2018-09-06T15:14:19.490Z,18.47
2018-09-06T15:16:47.918Z,23.90
2018-09-06T15:19:18.391Z,23.27
2018-09-06T15:21:46.893Z,21.77
2018-09-06T15:24:15.378Z,20.93
2018-09-06T15:26:43.776Z,21.17
2018-09-06T15:29:12.287Z,19.27
2018-09-06T15:31:40.921Z,18.30
2018-09-06T15:34:09.313Z,18.53
2018-09-06T15:36:37.856Z,20.60
2018-09-06T15:39:07.604Z,20.97
2018-09-06T15:41:36.185Z,18.83
2018-09-06T15:44:04.668Z,23.87
2018-09-06T15:46:33.085Z,21.90
2018-09-06T15:49:01.524Z,18.10
2018-09-06T15:51:30.073Z,19.57
2018-09-06T15:53:58.461Z,21.23
2018-09-06T15:56:26.918Z,18.60
2018-09-06T15:58:55.445Z,20.67
2018-09-06T16:01:23.912Z,24.97
2018-09-06T16:04:01.925Z,18.63
2018-09-06T16:06:30.351Z,19.40
2018-09-06T16:08:58.786Z,19.80
2018-09-06T16:11:32.246Z,24.73
2018-09-06T16:14:00.855Z,20.73
2018-09-06T16:16:29.504Z,17.03
2018-09-06T16:19:07.408Z,18.27
2018-09-06T16:21:36.570Z,23.47
2018-09-06T16:24:08.534Z,22.03
2018-09-06T16:26:37.370Z,21.53
2018-09-06T16:29:09.228Z,23.63
2018-09-06T16:31:37.841Z,19.30
2018-09-06T16:34:07.473Z,22.23
2018-09-06T16:36:36.035Z,23.90
2018-09-06T16:39:06.412Z,21.33
2018-09-06T16:41:34.837Z,24.43
2018-09-06T16:44:05.310Z,20.77
2018-09-06T16:46:33.864Z,23.30
2018-09-06T16:49:02.496Z,20.73
2018-09-06T16:51:31.037Z,17.87
2018-09-06T16:53:59.398Z,21.03
2018-09-06T16:56:28.212Z,18.40
2018-09-06T16:58:56.737Z,20.00
2018-09-06T17:01:25.211Z,22.47
2018-09-06T17:03:54.272Z,19.50
2018-09-06T17:06:22.875Z,20.70
2018-09-06T17:08:51.352Z,23.10
2018-09-06T17:11:19.840Z,21.57
2018-09-06T17:13:48.349Z,19.47
2018-09-06T17:16:16.832Z,20.37
2018-09-06T17:18:46.091Z,19.00
2018-09-06T17:21:14.524Z,16.67
2018-09-06T17:23:43.006Z,18.27
2018-09-06T17:26:11.509Z,20.53
2018-09-06T17:28:39.991Z,19.53
2018-09-06T17:31:08.504Z,16.87
2018-09-06T17:33:37.009Z,15.67
2018-09-06T17:36:05.531Z,16.60
2018-09-06T17:38:34.123Z,19.37
2018-09-06T17:41:02.559Z,19.10
2018-09-06T17:43:31.041Z,20.43
2018-09-06T17:45:59.521Z,18.13
2018-09-06T17:48:27.922Z,22.77
2018-09-06T17:50:56.394Z,20.67
2018-09-06T17:53:24.924Z,22.73
2018-09-06T17:55:53.344Z,19.90
2018-09-06T17:58:21.802Z,20.70
2018-09-06T18:01:31.002Z,24.53
2018-09-06T18:03:59.537Z,19.77
2018-09-06T18:06:28.074Z,19.53
2018-09-06T18:08:56.638Z,18.97
2018-09-06T18:11:25.108Z,21.57
2018-09-06T18:13:53.588Z,22.83
2018-09-06T18:16:22.096Z,20.73
2018-09-06T18:18:50.655Z,19.20
2018-09-06T18:21:19.477Z,19.97
2018-09-06T18:23:47.963Z,22.43
2018-09-06T18:26:16.349Z,19.60
2018-09-06T18:28:44.810Z,20.73
2018-09-06T18:31:13.229Z,20.60
2018-09-06T18:33:41.744Z,23.67
2018-09-06T18:36:10.661Z,22.90
2018-09-06T18:38:39.098Z,21.00
2018-09-06T18:41:07.685Z,23.83
2018-09-06T18:43:36.227Z,23.10
2018-09-06T18:46:04.717Z,21.83
2018-09-06T18:48:33.324Z,19.87
2018-09-06T18:51:01.764Z,24.03
2018-09-06T18:53:30.122Z,23.53
2018-09-06T18:55:58.569Z,23.03
2018-09-06T18:58:36.770Z,25.70
2018-09-06T19:01:05.623Z,23.87
2018-09-06T19:03:34.165Z,21.80
2018-09-06T19:06:02.621Z,24.50
2018-09-06T19:08:31.069Z,25.13
2018-09-06T19:10:59.457Z,24.33
2018-09-06T19:13:28.093Z,25.67
2018-09-06T19:16:02.212Z,21.57
2018-09-06T19:18:30.640Z,21.50
2018-09-06T19:20:59.045Z,22.63
2018-09-06T19:23:27.483Z,29.30
2018-09-06T19:25:56.104Z,22.47
2018-09-06T19:28:24.494Z,27.13
2018-09-06T19:30:52.953Z,26.20
2018-09-06T19:33:21.395Z,23.23
2018-09-06T19:35:49.846Z,24.20
2018-09-06T19:38:18.356Z,27.50
2018-09-06T19:40:46.797Z,26.60
2018-09-06T19:43:15.248Z,25.20
2018-09-06T19:45:43.687Z,28.43
2018-09-06T19:48:12.156Z,27.00
2018-09-06T19:50:40.672Z,27.07
2018-09-06T19:53:09.125Z,29.53
2018-09-06T19:55:37.580Z,30.17
2018-09-06T19:58:06.121Z,26.67
2018-09-06T20:00:34.564Z,27.70
2018-09-06T20:03:02.969Z,29.60
2018-09-06T20:05:41.224Z,30.57
2018-09-06T20:08:09.844Z,29.23
2018-09-06T20:10:38.224Z,27.60
2018-09-06T20:13:06.576Z,26.77
2018-09-06T20:15:35.064Z,25.37
2018-09-06T20:18:03.526Z,27.50
2018-09-06T20:20:32.008Z,27.07
2018-09-06T20:23:00.676Z,24.47
2018-09-06T20:25:29.122Z,30.23
2018-09-06T20:27:57.600Z,30.97
2018-09-06T20:30:26.124Z,25.80
2018-09-06T20:32:54.621Z,24.23
2018-09-06T20:35:23.022Z,28.57
2018-09-06T20:37:51.434Z,29.77
2018-09-06T20:40:20.031Z,23.90
2018-09-06T20:42:48.455Z,24.13
2018-09-06T20:45:24.190Z,24.70
2018-09-06T20:47:52.813Z,27.47
2018-09-06T20:50:31.143Z,26.80
2018-09-06T20:53:00.772Z,23.80
2018-09-06T20:55:29.345Z,23.10
2018-09-06T20:57:57.786Z,27.13
2018-09-06T21:00:26.249Z,25.47
2018-09-06T21:02:54.734Z,26.23
2018-09-06T21:05:23.576Z,25.00
2018-09-06T21:07:52.193Z,24.23
2018-09-06T21:10:20.561Z,24.40
2018-09-06T21:12:48.985Z,22.83
2018-09-06T21:15:17.421Z,31.53
2018-09-06T21:17:45.921Z,28.03
2018-09-06T21:20:14.344Z,26.33
2018-09-06T21:22:52.556Z,28.23
2018-09-06T21:25:20.980Z,26.37
2018-09-06T21:27:49.377Z,28.20
2018-09-06T21:30:17.778Z,25.43
2018-09-06T21:32:46.252Z,27.20
2018-09-06T21:35:14.629Z,28.27
2018-09-06T21:37:43.338Z,29.73
2018-09-06T21:40:11.925Z,25.07
2018-09-06T21:42:40.310Z,31.73
2018-09-06T21:45:08.742Z,29.73
2018-09-06T21:47:37.181Z,28.93
2018-09-06T21:50:06.035Z,29.23
2018-09-06T21:52:34.540Z,23.10
2018-09-06T21:55:02.941Z,30.97
2018-09-06T21:57:31.470Z,25.53
2018-09-06T22:00:00.695Z,35.37
2018-09-06T22:02:34.411Z,25.07
2018-09-06T22:05:02.764Z,30.77
2018-09-06T22:07:31.356Z,29.77
2018-09-06T22:09:59.869Z,34.83
2018-09-06T22:12:28.360Z,34.80
2018-09-06T22:14:56.868Z,30.43
2018-09-06T22:17:25.245Z,30.43
2018-09-06T22:19:53.689Z,33.67
2018-09-06T22:22:27.740Z,35.60
2018-09-06T22:24:56.158Z,37.87
2018-09-06T22:27:24.557Z,33.30
2018-09-06T22:29:53.028Z,36.57
2018-09-06T22:32:21.396Z,34.50
2018-09-06T22:34:49.894Z,34.67
2018-09-06T22:37:18.601Z,36.40
2018-09-06T22:39:47.072Z,36.57
2018-09-06T22:42:15.445Z,36.27
2018-09-06T22:44:43.835Z,38.17
2018-09-06T22:47:12.270Z,35.47
2018-09-06T22:49:40.704Z,35.90
2018-09-06T22:52:09.140Z,41.33
2018-09-06T22:54:37.680Z,33.13
2018-09-06T22:57:06.121Z,34.57
2018-09-06T22:59:34.485Z,35.07
2018-09-06T23:02:02.880Z,37.20
2018-09-06T23:04:31.308Z,31.50
2018-09-06T23:06:59.781Z,30.17
2018-09-06T23:09:28.277Z,33.03
2018-09-06T23:11:56.909Z,32.57
2018-09-06T23:14:25.332Z,32.53
2018-09-06T23:16:53.753Z,39.60
2018-09-06T23:19:22.162Z,35.67
2018-09-06T23:21:51.914Z,36.97
2018-09-06T23:24:21.000Z,37.00
2018-09-06T23:26:49.534Z,35.83
2018-09-06T23:29:18.044Z,38.57
2018-09-06T23:31:56.636Z,33.67
2018-09-06T23:34:25.171Z,34.30
2018-09-06T23:36:53.561Z,29.10
2018-09-06T23:39:22.001Z,36.10
2018-09-06T23:41:50.465Z,33.13
2018-09-06T23:44:18.856Z,34.77
2018-09-06T23:46:47.300Z,31.93
2018-09-06T23:49:15.736Z,30.70
2018-09-06T23:51:44.258Z,29.00
2018-09-06T23:54:12.660Z,29.37
2018-09-06T23:56:41.373Z,31.70
2018-09-06T23:59:09.897Z,29.80
